Terminal Aerodrome Forecast
Issued by NWS Charleston, SC

Home | Current Version | Previous Version | Text Only | Print | Product List | Glossary On
Versions: 1 2 3 4 5 6 7 8 9 10 11 12 13 14 15 16
000
FTUS42 KCHS 202336
TAFCHS
TAF
KCHS 202336Z 2100/2124 20004KT P6SM SCT050
     FM210900 22003KT P6SM VCSH FEW008 BKN035
      TEMPO 2110/2113 4SM BR SCT007 BKN015
     FM211300 22005KT 5SM -SHRA BR SCT006 OVC012
     FM211900 19009KT P6SM VCSH SCT009 BKN030=

USA.gov is the U.S. government's official web portal to all federal, state and local government web resources and services.